Time;durP1;ratioP1;P1;durP2;ratioP2;P2;SDS_P1;SDS_P2;PMS_P1;PMS_P2;Temp;Humidity;BMP_temperature;BMP_pressure;BME280_temperature;BME280_humidity;BME280_pressure;Samples;Min_cycle;Max_cycle;Signal;HPM_P1;HPM_P2
2023/08/16 00:01:55;;;;;;;4.40;4.30;;;22.10;73.60;;;;;;6201872;28;20312;-80
2023/08/16 00:04:59;;;;;;;8.13;7.40;;;22.10;73.70;;;;;;6209461;28;20614;-82
2023/08/16 00:08:02;;;;;;;5.37;5.17;;;22.10;73.70;;;;;;6214821;28;20239;-81
2023/08/16 00:11:05;;;;;;;4.77;4.47;;;22.00;74.00;;;;;;6222473;28;20293;-82
2023/08/16 00:14:10;;;;;;;6.13;5.70;;;22.00;74.30;;;;;;6214453;28;20639;-81
2023/08/16 00:17:14;;;;;;;5.13;4.73;;;21.90;74.80;;;;;;6206548;28;20235;-81
2023/08/16 00:20:17;;;;;;;5.73;5.37;;;21.90;74.80;;;;;;6233779;28;20233;-82
2023/08/16 00:23:21;;;;;;;5.50;5.00;;;21.90;74.80;;;;;;6229729;28;20270;-81
2023/08/16 00:26:24;;;;;;;5.07;4.77;;;21.90;74.70;;;;;;6234162;28;20400;-81
2023/08/16 00:29:28;;;;;;;5.53;5.13;;;21.90;74.80;;;;;;6231255;28;20724;-82
2023/08/16 00:32:31;;;;;;;5.40;5.00;;;21.90;75.00;;;;;;6235927;28;20326;-82
2023/08/16 00:35:36;;;;;;;6.50;6.20;;;21.90;75.00;;;;;;6235552;28;20277;-81
2023/08/16 00:38:42;;;;;;;5.17;4.87;;;21.90;74.80;;;;;;6216982;28;20919;-80
2023/08/16 00:41:45;;;;;;;5.50;5.20;;;21.90;74.80;;;;;;6237496;28;20732;-81
2023/08/16 00:44:50;;;;;;;4.90;4.67;;;21.80;74.90;;;;;;6239973;28;20269;-81
2023/08/16 00:47:53;;;;;;;4.93;4.73;;;21.90;74.70;;;;;;6239495;28;20247;-80
2023/08/16 00:50:57;;;;;;;7.23;4.83;;;21.80;74.50;;;;;;6237663;28;20326;-80
2023/08/16 00:54:00;;;;;;;5.27;4.80;;;21.70;74.70;;;;;;6226608;28;20246;-80
2023/08/16 00:57:04;;;;;;;4.97;4.67;;;21.70;74.60;;;;;;6236551;28;20246;-81
2023/08/16 01:00:13;;;;;;;5.37;5.07;;;21.70;74.50;;;;;;6239726;28;20845;-80
2023/08/16 01:03:16;;;;;;;5.37;5.00;;;21.70;74.60;;;;;;6239465;28;20230;-79
2023/08/16 01:06:20;;;;;;;6.27;5.77;;;21.70;74.60;;;;;;6240238;28;20231;-81
2023/08/16 01:09:23;;;;;;;5.20;5.00;;;21.70;74.70;;;;;;6237944;28;20243;-81
2023/08/16 01:12:32;;;;;;;4.97;4.60;;;21.70;74.70;;;;;;6239751;28;20321;-80
2023/08/16 01:15:41;;;;;;;5.00;4.70;;;21.70;74.70;;;;;;6239566;28;20248;-79
2023/08/16 01:18:45;;;;;;;4.80;4.43;;;21.70;74.90;;;;;;6227807;28;20243;-81
2023/08/16 01:21:54;;;;;;;5.37;5.17;;;21.70;75.00;;;;;;6225959;28;20312;-79
2023/08/16 01:25:12;;;;;;;5.77;5.37;;;21.70;74.90;;;;;;6221496;28;20234;-80
2023/08/16 01:28:18;;;;;;;5.50;5.20;;;21.70;74.90;;;;;;6238518;28;20256;-80
2023/08/16 01:31:21;;;;;;;6.93;6.33;;;21.70;75.10;;;;;;6235225;28;20309;-81
2023/08/16 01:34:24;;;;;;;6.00;5.43;;;21.70;75.30;;;;;;6220908;28;20239;-82
2023/08/16 01:37:27;;;;;;;5.57;5.27;;;21.70;75.40;;;;;;6228566;28;20242;-80
2023/08/16 01:40:35;;;;;;;5.87;5.57;;;21.70;75.50;;;;;;6228242;28;20247;-81
2023/08/16 01:43:45;;;;;;;6.00;5.70;;;21.70;75.90;;;;;;6229949;28;20281;-82
2023/08/16 01:46:50;;;;;;;7.67;6.93;;;21.70;76.20;;;;;;6225672;28;20333;-79
2023/08/16 01:49:56;;;;;;;6.97;6.30;;;21.70;76.50;;;;;;6235252;28;20269;-81
2023/08/16 01:52:59;;;;;;;6.50;6.17;;;21.70;76.60;;;;;;6224166;28;20246;-79
2023/08/16 01:56:03;;;;;;;6.87;6.47;;;21.70;76.70;;;;;;6236888;28;20242;-81
2023/08/16 01:59:07;;;;;;;7.33;6.83;;;21.70;76.80;;;;;;6229606;28;20238;-80
2023/08/16 02:02:10;;;;;;;7.37;6.93;;;21.60;77.00;;;;;;6238374;28;20613;-81
2023/08/16 02:05:13;;;;;;;7.57;6.97;;;21.60;77.60;;;;;;6236803;28;20226;-80
2023/08/16 02:08:16;;;;;;;8.17;7.67;;;21.50;77.60;;;;;;6229926;28;20396;-80
2023/08/16 02:11:21;;;;;;;8.40;7.67;;;21.50;77.80;;;;;;6223751;28;20758;-81
2023/08/16 02:14:25;;;;;;;9.13;8.30;;;21.50;77.90;;;;;;6226610;28;20288;-80
2023/08/16 02:17:29;;;;;;;9.37;8.77;;;21.50;77.90;;;;;;6237052;28;20724;-81
2023/08/16 02:20:32;;;;;;;7.83;7.43;;;21.50;78.00;;;;;;6210129;28;20285;-79
2023/08/16 02:23:37;;;;;;;8.50;7.90;;;21.50;78.10;;;;;;6214504;28;20243;-81
2023/08/16 02:26:41;;;;;;;9.73;8.83;;;21.50;78.10;;;;;;6221271;28;20254;-81
2023/08/16 02:29:45;;;;;;;9.37;8.77;;;21.50;78.30;;;;;;6228193;28;20235;-79
2023/08/16 02:32:51;;;;;;;9.80;9.00;;;21.50;78.40;;;;;;6221636;28;20243;-83
2023/08/16 02:35:54;;;;;;;9.03;8.23;;;21.50;78.40;;;;;;6214662;28;20322;-81
2023/08/16 02:38:59;;;;;;;9.97;9.20;;;21.50;78.40;;;;;;6225324;28;20329;-79
2023/08/16 02:42:02;;;;;;;9.53;8.77;;;21.50;78.40;;;;;;6213534;28;20258;-81
2023/08/16 02:45:08;;;;;;;9.47;8.70;;;21.40;78.70;;;;;;6221626;28;20279;-80
2023/08/16 02:48:11;;;;;;;9.27;8.67;;;21.40;78.70;;;;;;6208379;28;20235;-80
2023/08/16 02:51:16;;;;;;;8.97;8.40;;;21.40;78.70;;;;;;6211014;28;20234;-79
2023/08/16 02:54:20;;;;;;;9.80;8.90;;;21.40;78.70;;;;;;6215087;28;20306;-81
2023/08/16 02:57:23;;;;;;;9.97;9.13;;;21.40;78.70;;;;;;6218462;28;20312;-79
2023/08/16 03:00:29;;;;;;;8.37;7.87;;;21.40;78.90;;;;;;6200031;28;20271;-81
2023/08/16 03:03:33;;;;;;;9.63;8.87;;;21.40;79.00;;;;;;6210571;28;20631;-81
2023/08/16 03:06:36;;;;;;;9.20;8.70;;;21.40;78.90;;;;;;6228249;28;20236;-80
2023/08/16 03:09:39;;;;;;;8.80;8.30;;;21.40;78.90;;;;;;6223114;28;20646;-81
2023/08/16 03:12:42;;;;;;;10.00;9.27;;;21.40;78.90;;;;;;6215135;28;20270;-81
2023/08/16 03:15:47;;;;;;;10.30;9.60;;;21.40;78.90;;;;;;6182525;28;20267;-82
2023/08/16 03:18:50;;;;;;;10.83;10.07;;;21.40;78.90;;;;;;6211245;28;20245;-79
2023/08/16 03:21:55;;;;;;;11.37;10.43;;;21.40;78.90;;;;;;6219938;28;20867;-82
2023/08/16 03:24:58;;;;;;;9.97;9.13;;;21.40;78.90;;;;;;6230485;28;20246;-80
2023/08/16 03:28:02;;;;;;;9.27;8.67;;;21.40;78.90;;;;;;6236546;28;20319;-80
2023/08/16 03:31:11;;;;;;;10.83;10.03;;;21.40;78.80;;;;;;6226309;28;20659;-82
2023/08/16 03:34:15;;;;;;;10.67;9.93;;;21.40;78.90;;;;;;6230916;28;20279;-78
2023/08/16 03:37:18;;;;;;;11.00;10.30;;;21.40;78.80;;;;;;6236152;28;20242;-77
2023/08/16 03:40:21;;;;;;;11.13;10.27;;;21.40;79.00;;;;;;6236372;28;20227;-79
2023/08/16 03:43:24;;;;;;;11.20;10.30;;;21.40;79.00;;;;;;6239144;28;20312;-81
2023/08/16 03:46:29;;;;;;;11.23;10.23;;;21.40;79.00;;;;;;6232326;28;21103;-80
2023/08/16 03:49:32;;;;;;;12.33;11.17;;;21.30;79.10;;;;;;6234132;28;20246;-80
2023/08/16 03:52:35;;;;;;;12.27;10.97;;;21.30;79.00;;;;;;6238070;28;20748;-79
2023/08/16 03:55:38;;;;;;;11.40;10.70;;;21.30;79.10;;;;;;6234853;28;20325;-77
2023/08/16 03:58:42;;;;;;;11.90;11.00;;;21.30;79.10;;;;;;6224754;28;20278;-80
2023/08/16 04:01:46;;;;;;;10.73;9.93;;;21.30;79.10;;;;;;6230606;28;20274;-77
2023/08/16 04:04:53;;;;;;;9.97;9.37;;;21.30;79.00;;;;;;6231628;28;20238;-78
2023/08/16 04:07:57;;;;;;;12.30;11.30;;;21.30;79.00;;;;;;6226292;28;20318;-77
2023/08/16 04:11:00;;;;;;;11.13;10.33;;;21.30;79.10;;;;;;6235309;28;20257;-77
2023/08/16 04:14:04;;;;;;;12.00;10.93;;;21.30;79.00;;;;;;6233312;28;20230;-79
2023/08/16 04:17:09;;;;;;;10.30;9.70;;;21.30;79.10;;;;;;6231454;28;20321;-77
2023/08/16 04:20:13;;;;;;;11.13;10.20;;;21.30;79.10;;;;;;6238856;28;20238;-79
2023/08/16 04:23:16;;;;;;;12.30;11.30;;;21.20;79.10;;;;;;6244082;28;21600;-79
2023/08/16 04:26:19;;;;;;;13.67;12.57;;;21.20;79.20;;;;;;6238604;28;20325;-80
2023/08/16 04:29:22;;;;;;;10.50;9.70;;;21.20;79.10;;;;;;6239443;28;20833;-80
2023/08/16 04:32:26;;;;;;;12.37;11.40;;;21.20;79.00;;;;;;6229587;28;20971;-77
2023/08/16 04:35:29;;;;;;;12.43;11.53;;;21.20;79.00;;;;;;6226606;28;20227;-80
2023/08/16 04:38:32;;;;;;;10.60;9.70;;;21.30;79.00;;;;;;6235124;28;20238;-81
2023/08/16 04:41:36;;;;;;;10.50;9.70;;;21.20;79.00;;;;;;6238976;28;20308;-80
2023/08/16 04:44:39;;;;;;;11.93;10.80;;;21.10;79.00;;;;;;6233771;28;20721;-78
2023/08/16 04:47:44;;;;;;;11.37;10.23;;;21.10;79.00;;;;;;6239224;28;20273;-79
2023/08/16 04:50:48;;;;;;;10.77;9.67;;;21.10;78.70;;;;;;6235733;28;20947;-81
2023/08/16 04:53:51;;;;;;;9.90;9.20;;;21.10;78.80;;;;;;6239176;28;20234;-80
2023/08/16 04:56:54;;;;;;;11.90;10.90;;;21.10;78.80;;;;;;6238504;28;20266;-81
2023/08/16 04:59:57;;;;;;;10.80;10.00;;;21.10;79.00;;;;;;6239700;28;20709;-80
2023/08/16 05:03:02;;;;;;;11.30;10.57;;;21.10;79.00;;;;;;6238029;28;20230;-80
2023/08/16 05:06:06;;;;;;;12.40;11.20;;;21.20;79.00;;;;;;6237812;28;20247;-82
2023/08/16 05:09:09;;;;;;;9.37;8.77;;;21.30;79.00;;;;;;6238749;28;20244;-80
2023/08/16 05:12:12;;;;;;;11.47;10.43;;;21.40;78.90;;;;;;6238279;28;20273;-79
2023/08/16 05:15:15;;;;;;;11.73;10.97;;;21.50;78.80;;;;;;6239915;28;20932;-81
2023/08/16 05:18:20;;;;;;;13.27;12.07;;;21.70;78.40;;;;;;6234403;28;20241;-80
2023/08/16 05:21:23;;;;;;;11.90;11.00;;;21.70;78.10;;;;;;6238468;28;21654;-81
2023/08/16 05:24:26;;;;;;;12.27;11.30;;;21.70;78.00;;;;;;6238019;28;20242;-78
2023/08/16 05:27:30;;;;;;;11.63;10.73;;;21.70;78.00;;;;;;6236251;28;20534;-80
2023/08/16 05:30:33;;;;;;;11.37;10.53;;;21.90;77.80;;;;;;6234038;28;20813;-79
2023/08/16 05:33:38;;;;;;;12.17;11.10;;;21.90;77.60;;;;;;6230378;28;20234;-79
2023/08/16 05:36:47;;;;;;;11.90;10.90;;;21.90;77.30;;;;;;6234200;28;20247;-79
2023/08/16 05:39:50;;;;;;;11.87;10.87;;;22.00;77.20;;;;;;6235994;28;20243;-78
2023/08/16 05:42:54;;;;;;;12.00;11.00;;;22.10;76.80;;;;;;6239287;28;20247;-78
2023/08/16 05:45:57;;;;;;;12.57;11.43;;;22.10;76.60;;;;;;6237809;28;20234;-80
2023/08/16 05:49:01;;;;;;;11.17;10.27;;;22.10;76.70;;;;;;6237528;28;20246;-80
2023/08/16 05:52:06;;;;;;;12.33;11.30;;;22.10;76.60;;;;;;6208531;28;20238;-79
2023/08/16 05:55:09;;;;;;;12.50;11.37;;;22.20;76.40;;;;;;6235296;28;20326;-78
2023/08/16 05:58:13;;;;;;;10.90;9.83;;;22.20;76.20;;;;;;6235239;28;20309;-81
2023/08/16 06:01:16;;;;;;;12.90;11.93;;;22.20;76.30;;;;;;6238030;28;20825;-81
2023/08/16 06:04:20;;;;;;;13.67;12.37;;;22.10;76.10;;;;;;6234582;28;20310;-81
2023/08/16 06:07:24;;;;;;;11.97;11.20;;;22.10;76.10;;;;;;6237065;28;20261;-77
2023/08/16 06:10:27;;;;;;;12.57;11.47;;;22.20;76.20;;;;;;6237024;28;20620;-79
2023/08/16 06:13:31;;;;;;;11.80;10.60;;;22.40;75.60;;;;;;6222971;28;20235;-81
2023/08/16 06:16:34;;;;;;;13.20;12.03;;;22.50;75.40;;;;;;6227882;28;20302;-79
2023/08/16 06:19:39;;;;;;;14.13;12.47;;;22.40;74.90;;;;;;6240699;28;20318;-77
2023/08/16 06:22:43;;;;;;;12.70;11.50;;;22.20;75.30;;;;;;6247374;28;20246;-77
2023/08/16 06:25:46;;;;;;;12.37;11.37;;;22.20;75.30;;;;;;6244580;28;20238;-80
2023/08/16 06:28:49;;;;;;;12.80;11.63;;;22.20;75.40;;;;;;6237387;28;20320;-77
2023/08/16 06:31:54;;;;;;;12.97;11.87;;;22.10;75.30;;;;;;6234335;28;20249;-79
2023/08/16 06:34:59;;;;;;;11.50;10.50;;;22.10;75.10;;;;;;6237500;28;20347;-79
2023/08/16 06:38:02;;;;;;;11.40;10.57;;;22.30;74.80;;;;;;6239865;28;20242;-79
2023/08/16 06:41:06;;;;;;;11.50;10.60;;;22.50;73.50;;;;;;6243508;28;20231;-78
2023/08/16 06:44:09;;;;;;;10.70;9.83;;;22.50;73.40;;;;;;6241896;28;20751;-76
2023/08/16 06:47:12;;;;;;;13.10;10.07;;;22.60;73.50;;;;;;6240719;28;20235;-78
2023/08/16 06:50:17;;;;;;;9.13;8.33;;;22.70;72.80;;;;;;6240866;28;20790;-78
2023/08/16 06:53:20;;;;;;;8.53;7.93;;;22.80;73.00;;;;;;6246654;28;20230;-79
2023/08/16 06:56:23;;;;;;;9.83;8.67;;;23.00;72.90;;;;;;6238011;28;20246;-80
2023/08/16 06:59:28;;;;;;;8.47;7.77;;;23.30;72.10;;;;;;6236941;28;20318;-79
2023/08/16 07:02:31;;;;;;;12.07;9.40;;;23.60;71.20;;;;;;6237796;28;20397;-79
2023/08/16 07:05:36;;;;;;;8.87;8.23;;;23.90;69.40;;;;;;6239056;28;20709;-79
2023/08/16 07:08:40;;;;;;;8.60;7.90;;;24.20;68.60;;;;;;6237793;28;20393;-79
2023/08/16 07:11:43;;;;;;;10.03;8.97;;;24.50;67.90;;;;;;6237120;28;20731;-75
2023/08/16 07:14:48;;;;;;;10.77;8.87;;;24.60;67.00;;;;;;6231655;28;20311;-79
2023/08/16 07:17:51;;;;;;;9.07;8.47;;;24.60;66.30;;;;;;6227956;28;20246;-81
2023/08/16 07:20:55;;;;;;;8.70;8.00;;;24.40;66.90;;;;;;6224351;28;20280;-78
2023/08/16 07:23:59;;;;;;;7.70;7.20;;;24.40;67.20;;;;;;6238592;28;20575;-81
2023/08/16 07:27:02;;;;;;;8.90;8.20;;;24.50;67.50;;;;;;6238674;28;20238;-79
2023/08/16 07:30:06;;;;;;;8.10;7.50;;;24.60;67.30;;;;;;6235031;28;20249;-79
2023/08/16 07:33:11;;;;;;;7.93;7.33;;;24.60;66.80;;;;;;6238281;28;20231;-79
2023/08/16 07:36:15;;;;;;;7.37;6.87;;;24.70;66.20;;;;;;6235889;28;20290;-79
2023/08/16 07:39:19;;;;;;;8.33;7.63;;;24.80;66.20;;;;;;6236770;28;20246;-78
2023/08/16 07:42:23;;;;;;;8.10;7.40;;;24.80;65.40;;;;;;6235980;28;20231;-78
2023/08/16 07:45:27;;;;;;;8.67;7.97;;;25.00;64.90;;;;;;6235536;28;20313;-79
2023/08/16 07:48:30;;;;;;;8.83;7.07;;;25.00;64.90;;;;;;6230973;28;20245;-78
2023/08/16 07:51:34;;;;;;;7.07;6.47;;;25.00;65.10;;;;;;6237796;28;20331;-79
2023/08/16 07:54:38;;;;;;;6.97;6.40;;;25.00;65.60;;;;;;6241262;28;20249;-78
2023/08/16 07:57:41;;;;;;;8.53;7.10;;;25.10;65.80;;;;;;6242384;28;20242;-77
2023/08/16 08:00:46;;;;;;;7.73;7.20;;;25.30;65.30;;;;;;6239145;28;20257;-79
2023/08/16 08:03:49;;;;;;;7.60;6.97;;;25.40;65.00;;;;;;6240558;28;20237;-78
2023/08/16 08:06:53;;;;;;;7.30;6.70;;;25.70;64.50;;;;;;6241043;28;20895;-77
2023/08/16 08:09:58;;;;;;;7.40;6.80;;;26.00;64.50;;;;;;6241239;28;20288;-79
2023/08/16 08:13:01;;;;;;;7.43;6.73;;;26.10;64.20;;;;;;6233906;28;20234;-79
2023/08/16 08:16:04;;;;;;;8.30;7.80;;;26.20;63.50;;;;;;6239433;28;20747;-78
2023/08/16 08:19:07;;;;;;;7.70;7.00;;;26.10;63.80;;;;;;6232334;28;20257;-78
2023/08/16 08:22:12;;;;;;;6.97;6.57;;;26.00;63.70;;;;;;6241805;28;20246;-78
2023/08/16 08:25:15;;;;;;;6.00;5.60;;;26.00;64.10;;;;;;6235095;28;20243;-78
2023/08/16 08:28:18;;;;;;;6.40;6.07;;;26.10;63.10;;;;;;6239569;28;20775;-79
2023/08/16 08:31:21;;;;;;;6.60;6.10;;;26.10;63.60;;;;;;6241052;28;20320;-78
2023/08/16 08:34:26;;;;;;;6.40;5.90;;;26.10;62.70;;;;;;6237524;28;20231;-83
2023/08/16 08:37:31;;;;;;;6.73;6.13;;;26.00;63.00;;;;;;6207985;28;20249;-80
2023/08/16 08:40:35;;;;;;;6.47;5.87;;;26.00;63.00;;;;;;6243373;28;20625;-82
2023/08/16 08:43:39;;;;;;;6.00;5.60;;;26.10;63.00;;;;;;6239518;28;20246;-78
2023/08/16 08:47:05;;;;;;;7.13;5.80;;;26.40;62.80;;;;;;6222683;28;20243;-82
2023/08/16 08:50:18;;;;;;;6.20;5.63;;;26.60;63.10;;;;;;6233364;28;20234;-83
2023/08/16 08:53:22;;;;;;;5.40;5.20;;;26.70;62.10;;;;;;6237432;28;20241;-81
2023/08/16 08:56:28;;;;;;;5.03;4.80;;;26.90;60.60;;;;;;6240607;28;20235;-84
2023/08/16 08:59:35;;;;;;;5.63;5.23;;;27.00;60.70;;;;;;6233280;28;20238;-83
2023/08/16 09:02:38;;;;;;;5.43;4.93;;;27.00;59.70;;;;;;6226024;28;20798;-83
2023/08/16 09:05:43;;;;;;;5.13;4.73;;;27.00;59.80;;;;;;6231094;28;20245;-83
2023/08/16 09:08:48;;;;;;;4.57;4.30;;;27.00;60.20;;;;;;6239205;28;20724;-83
2023/08/16 09:11:51;;;;;;;5.53;5.33;;;27.00;60.40;;;;;;6238986;28;20241;-84
2023/08/16 09:14:54;;;;;;;4.93;4.70;;;27.10;60.50;;;;;;6233370;28;20647;-82
2023/08/16 09:18:07;;;;;;;5.03;4.70;;;27.20;60.30;;;;;;6237489;28;20726;-81
2023/08/16 09:21:14;;;;;;;5.00;4.60;;;27.20;60.20;;;;;;6232994;28;20231;-83
2023/08/16 09:24:23;;;;;;;4.73;4.53;;;27.20;60.20;;;;;;6238052;28;20373;-82
2023/08/16 09:27:28;;;;;;;4.83;4.53;;;27.00;59.20;;;;;;6236920;28;20640;-80
2023/08/16 09:30:31;;;;;;;5.07;4.77;;;26.80;59.90;;;;;;6239886;28;20865;-81
2023/08/16 09:33:35;;;;;;;4.70;4.50;;;26.60;60.40;;;;;;6239989;28;20658;-82
2023/08/16 09:36:38;;;;;;;5.07;4.83;;;26.30;61.00;;;;;;6238080;28;20606;-80
2023/08/16 09:39:42;;;;;;;4.63;4.43;;;26.10;61.50;;;;;;6239357;28;20825;-82
2023/08/16 09:42:46;;;;;;;5.50;5.27;;;25.90;61.80;;;;;;6211077;28;20254;-82
2023/08/16 09:45:51;;;;;;;4.90;4.60;;;25.80;62.20;;;;;;6239285;28;20277;-83
2023/08/16 09:49:03;;;;;;;5.43;5.13;;;25.80;62.60;;;;;;6234215;28;20235;-84
2023/08/16 09:52:10;;;;;;;6.10;5.27;;;25.80;62.60;;;;;;6238598;28;20234;-82
2023/08/16 09:55:28;;;;;;;6.47;5.87;;;26.00;62.80;;;;;;6239289;28;20308;-81
2023/08/16 09:58:32;;;;;;;5.67;5.37;;;26.00;61.90;;;;;;6238671;28;20385;-81
2023/08/16 10:01:36;;;;;;;4.83;4.50;;;26.00;62.50;;;;;;6236968;28;20312;-82
2023/08/16 10:04:56;;;;;;;4.93;4.53;;;26.10;62.00;;;;;;6237045;28;20242;-81
2023/08/16 10:08:05;;;;;;;4.73;4.60;;;26.20;61.00;;;;;;6227533;28;20238;-80
2023/08/16 10:11:10;;;;;;;4.73;4.53;;;26.30;60.50;;;;;;6230710;28;20219;-77
2023/08/16 10:14:14;;;;;;;5.20;5.00;;;26.40;60.90;;;;;;6251757;28;20228;-78
2023/08/16 10:17:21;;;;;;;4.93;4.63;;;26.50;60.10;;;;;;6265424;28;20226;-79
2023/08/16 10:20:26;;;;;;;4.67;4.37;;;26.40;60.00;;;;;;6262024;28;20230;-77
2023/08/16 10:23:31;;;;;;;4.43;4.13;;;26.40;60.40;;;;;;6237493;28;20240;-81
2023/08/16 10:26:38;;;;;;;4.67;4.37;;;26.40;60.30;;;;;;6237542;28;20220;-82
2023/08/16 10:29:44;;;;;;;4.50;4.40;;;26.40;59.80;;;;;;6243432;28;20220;-81
2023/08/16 10:32:50;;;;;;;4.17;4.07;;;26.50;59.40;;;;;;6226407;28;20248;-80
2023/08/16 10:35:54;;;;;;;3.57;3.47;;;26.60;59.50;;;;;;6244515;28;20245;-82
2023/08/16 10:38:59;;;;;;;4.80;4.50;;;26.80;59.90;;;;;;6243728;28;20230;-79
2023/08/16 10:42:07;;;;;;;5.17;4.80;;;27.00;59.30;;;;;;6225594;28;20226;-79
2023/08/16 10:45:10;;;;;;;5.00;4.70;;;26.90;59.80;;;;;;6253874;28;20269;-80
2023/08/16 10:48:17;;;;;;;5.47;5.00;;;27.00;59.40;;;;;;6259406;28;20225;-83
2023/08/16 10:51:20;;;;;;;5.10;4.80;;;27.10;58.90;;;;;;6237907;28;20215;-80
2023/08/16 10:54:33;;;;;;;4.87;4.47;;;27.20;59.80;;;;;;6241623;28;20223;-80
2023/08/16 10:57:39;;;;;;;4.60;4.20;;;27.30;58.40;;;;;;6252310;28;20230;-82
2023/08/16 11:00:43;;;;;;;4.50;4.40;;;27.30;58.60;;;;;;6245873;28;20234;-81
2023/08/16 11:03:49;;;;;;;5.30;4.87;;;27.10;58.60;;;;;;6246159;28;20411;-81
2023/08/16 11:06:52;;;;;;;5.20;4.70;;;27.10;59.90;;;;;;6260792;28;20307;-79
2023/08/16 11:10:05;;;;;;;4.70;4.60;;;26.90;60.30;;;;;;6248901;28;20243;-82
2023/08/16 11:13:11;;;;;;;4.53;4.23;;;26.80;60.00;;;;;;6249278;28;20291;-80
2023/08/16 11:16:14;;;;;;;4.00;3.90;;;26.70;59.20;;;;;;6242678;28;20288;-81
2023/08/16 11:19:22;;;;;;;5.07;4.63;;;26.70;59.70;;;;;;6242253;28;20380;-77
2023/08/16 11:22:26;;;;;;;4.10;3.90;;;26.80;59.00;;;;;;6237001;28;20230;-79
2023/08/16 11:25:34;;;;;;;4.70;4.50;;;26.80;58.70;;;;;;6226708;28;20227;-80
2023/08/16 11:28:42;;;;;;;4.97;4.77;;;26.80;58.50;;;;;;6218427;28;20236;-82
2023/08/16 11:31:45;;;;;;;4.20;4.10;;;26.90;58.70;;;;;;6222284;28;20325;-77
2023/08/16 11:34:49;;;;;;;5.47;4.00;;;27.10;59.30;;;;;;6210490;28;20243;-77
2023/08/16 11:37:52;;;;;;;5.53;5.03;;;27.20;58.30;;;;;;6224228;28;20239;-77
2023/08/16 11:40:56;;;;;;;4.27;3.97;;;27.40;57.70;;;;;;6223233;28;20235;-77
2023/08/16 11:44:01;;;;;;;5.23;4.77;;;27.30;58.20;;;;;;6215625;28;20760;-78
2023/08/16 11:47:09;;;;;;;4.53;4.37;;;27.30;58.60;;;;;;6216805;28;20238;-76
2023/08/16 11:50:13;;;;;;;5.17;4.50;;;27.30;59.30;;;;;;6206206;28;20235;-76
2023/08/16 11:53:17;;;;;;;4.07;3.87;;;27.40;58.00;;;;;;6207273;28;20597;-78
2023/08/16 11:56:28;;;;;;;4.07;3.87;;;27.40;57.90;;;;;;6224206;28;20674;-78
2023/08/16 11:59:33;;;;;;;4.20;4.00;;;27.40;57.70;;;;;;6213174;28;20314;-80
2023/08/16 12:02:37;;;;;;;4.30;3.90;;;27.40;57.40;;;;;;6213341;28;20243;-80
2023/08/16 12:05:41;;;;;;;4.23;4.03;;;27.40;57.20;;;;;;6208025;28;20317;-76
2023/08/16 12:08:54;;;;;;;4.43;4.03;;;27.70;57.10;;;;;;6221953;28;20238;-78
2023/08/16 12:11:58;;;;;;;4.07;3.87;;;27.90;56.80;;;;;;6209246;28;20246;-79
2023/08/16 12:15:04;;;;;;;3.85;3.67;;;28.30;56.00;;;;;;6217937;28;20235;-79
2023/08/16 12:18:07;;;;;;;4.07;3.77;;;28.40;55.00;;;;;;6201636;28;20918;-78
2023/08/16 12:21:10;;;;;;;4.35;3.95;;;28.70;55.00;;;;;;6230337;28;20237;-79
2023/08/16 12:24:13;;;;;;;3.47;3.30;;;28.90;55.00;;;;;;6234663;28;20430;-77
2023/08/16 12:27:16;;;;;;;3.78;3.58;;;29.20;53.60;;;;;;6237226;28;20811;-78
2023/08/16 12:30:20;;;;;;;3.70;3.50;;;29.40;54.40;;;;;;6237391;28;20230;-79
2023/08/16 12:33:23;;;;;;;4.22;3.90;;;29.50;53.70;;;;;;6237365;28;20744;-78
2023/08/16 12:36:27;;;;;;;3.50;3.40;;;29.50;53.10;;;;;;6237982;28;20277;-75
2023/08/16 12:39:30;;;;;;;3.85;3.72;;;29.30;53.80;;;;;;6236252;28;20329;-78
2023/08/16 12:42:35;;;;;;;4.30;3.70;;;29.00;52.90;;;;;;6237614;28;20618;-77
2023/08/16 12:45:39;;;;;;;3.90;3.70;;;28.80;52.90;;;;;;6241939;28;20329;-77
2023/08/16 12:48:42;;;;;;;4.43;4.05;;;28.60;52.90;;;;;;6241217;28;20614;-80
2023/08/16 12:51:46;;;;;;;4.55;4.25;;;28.60;53.70;;;;;;6236096;28;20242;-77
2023/08/16 12:54:50;;;;;;;3.43;3.33;;;28.50;53.80;;;;;;6241084;28;20242;-76
2023/08/16 12:57:53;;;;;;;4.32;3.80;;;28.50;52.90;;;;;;6232498;28;20270;-77
2023/08/16 13:01:06;;;;;;;4.30;4.00;;;28.40;53.40;;;;;;6239882;28;20238;-77
2023/08/16 13:04:10;;;;;;;4.07;3.97;;;28.20;53.50;;;;;;6237773;28;20253;-77
2023/08/16 13:07:16;;;;;;;3.50;3.40;;;28.10;54.00;;;;;;6231775;28;20306;-78
2023/08/16 13:10:31;;;;;;;3.73;3.47;;;28.10;54.60;;;;;;6239259;28;20312;-78
2023/08/16 13:13:41;;;;;;;4.03;3.83;;;28.30;54.50;;;;;;6211497;28;20238;-80
2023/08/16 13:16:46;;;;;;;4.30;3.57;;;28.40;53.70;;;;;;6234343;28;20259;-78
2023/08/16 13:19:51;;;;;;;3.73;3.63;;;28.50;53.70;;;;;;6233723;28;20926;-78
2023/08/16 13:23:05;;;;;;;3.47;3.27;;;28.40;54.30;;;;;;6238500;28;20250;-78
2023/08/16 13:26:11;;;;;;;3.70;3.50;;;28.30;54.60;;;;;;6238869;28;20766;-81
2023/08/16 13:29:17;;;;;;;3.63;3.47;;;28.40;55.50;;;;;;6237522;28;21151;-78
2023/08/16 13:32:32;;;;;;;3.53;3.40;;;28.40;53.70;;;;;;6241887;28;20235;-78
2023/08/16 13:35:44;;;;;;;3.50;3.40;;;28.40;54.40;;;;;;6240307;28;20633;-78
2023/08/16 13:38:50;;;;;;;3.60;3.50;;;28.50;55.00;;;;;;6233377;28;20327;-79
2023/08/16 13:42:00;;;;;;;3.43;3.33;;;28.50;54.40;;;;;;6232307;28;20249;-78
2023/08/16 13:45:07;;;;;;;3.60;3.50;;;28.70;54.20;;;;;;6226493;28;20235;-77
2023/08/16 13:48:14;;;;;;;3.55;3.45;;;28.70;53.40;;;;;;6238618;28;20243;-78
2023/08/16 13:51:17;;;;;;;3.92;3.67;;;28.80;54.40;;;;;;6228157;28;20361;-79
2023/08/16 13:54:20;;;;;;;4.22;3.72;;;29.10;54.40;;;;;;6220153;28;20230;-79
2023/08/16 13:57:24;;;;;;;3.30;3.10;;;29.50;53.50;;;;;;6238024;28;20230;-78
2023/08/16 14:00:27;;;;;;;3.83;3.72;;;29.80;52.90;;;;;;6241343;28;20242;-77
2023/08/16 14:03:32;;;;;;;3.50;3.40;;;30.00;51.60;;;;;;6233131;28;20230;-78
2023/08/16 14:06:35;;;;;;;3.70;3.60;;;29.90;51.80;;;;;;6239257;28;20238;-79
2023/08/16 14:09:38;;;;;;;3.67;3.58;;;29.70;52.20;;;;;;6234329;28;20289;-81
2023/08/16 14:12:41;;;;;;;3.83;3.53;;;29.60;52.50;;;;;;6214454;28;20229;-79
2023/08/16 14:15:47;;;;;;;3.70;3.60;;;29.50;53.00;;;;;;6238795;28;20242;-78
2023/08/16 14:18:51;;;;;;;3.10;3.00;;;29.30;53.40;;;;;;6234051;28;20234;-82
2023/08/16 14:21:54;;;;;;;3.20;3.10;;;29.10;53.10;;;;;;6238914;28;21047;-82
2023/08/16 14:25:00;;;;;;;3.80;3.53;;;28.90;53.70;;;;;;6230623;28;20364;-78
2023/08/16 14:28:03;;;;;;;4.78;4.05;;;28.70;54.20;;;;;;6209401;28;20242;-79
2023/08/16 14:31:06;;;;;;;4.30;4.07;;;28.60;54.00;;;;;;6232925;28;20246;-79
2023/08/16 14:34:11;;;;;;;3.65;3.45;;;28.70;54.00;;;;;;6236562;28;20234;-78
2023/08/16 14:37:14;;;;;;;3.30;3.20;;;29.00;54.60;;;;;;6237561;28;20230;-79
2023/08/16 14:40:18;;;;;;;3.75;3.50;;;29.20;53.40;;;;;;6224320;28;20269;-77
2023/08/16 14:43:32;;;;;;;3.30;3.00;;;29.40;52.20;;;;;;6232022;28;20700;-80
2023/08/16 14:46:35;;;;;;;3.97;3.88;;;29.30;52.00;;;;;;6227688;28;20242;-81
2023/08/16 14:49:40;;;;;;;3.28;3.17;;;29.20;52.70;;;;;;6226941;28;20742;-77
2023/08/16 14:52:43;;;;;;;4.05;3.85;;;29.30;52.50;;;;;;6232917;28;20318;-79
2023/08/16 14:55:47;;;;;;;3.40;3.30;;;29.40;53.20;;;;;;6236398;28;20242;-78
2023/08/16 14:58:50;;;;;;;3.33;3.15;;;29.40;52.10;;;;;;6236531;28;20249;-84
2023/08/16 15:01:53;;;;;;;3.55;3.38;;;29.30;52.50;;;;;;6235826;28;20326;-81
2023/08/16 15:04:58;;;;;;;3.55;3.35;;;29.30;52.90;;;;;;6233742;28;20732;-81
2023/08/16 15:08:02;;;;;;;3.55;3.45;;;29.10;52.50;;;;;;6236523;28;20239;-80
2023/08/16 15:11:15;;;;;;;3.42;3.22;;;29.00;53.40;;;;;;6235321;28;20238;-81
2023/08/16 15:14:18;;;;;;;3.75;3.65;;;29.10;53.40;;;;;;6234112;28;20234;-81
2023/08/16 15:17:21;;;;;;;3.78;3.50;;;29.20;53.20;;;;;;6235380;28;20237;-81
2023/08/16 15:20:26;;;;;;;4.05;3.78;;;29.10;53.40;;;;;;6227957;28;20266;-80
2023/08/16 15:23:29;;;;;;;4.38;4.00;;;28.90;54.40;;;;;;6182304;28;20228;-80
2023/08/16 15:26:34;;;;;;;4.88;4.50;;;28.90;54.10;;;;;;6216585;28;20756;-81
2023/08/16 15:29:38;;;;;;;3.80;3.60;;;28.90;54.30;;;;;;6205836;28;20317;-79
2023/08/16 15:32:41;;;;;;;4.15;3.85;;;28.70;54.10;;;;;;6210735;28;20305;-80
2023/08/16 15:35:46;;;;;;;3.72;3.63;;;28.50;54.50;;;;;;6219540;28;20722;-81
2023/08/16 15:38:49;;;;;;;3.92;3.75;;;28.30;55.10;;;;;;6213402;28;20243;-79
2023/08/16 15:41:55;;;;;;;3.87;3.77;;;28.30;54.80;;;;;;6218980;28;20243;-82
2023/08/16 15:44:58;;;;;;;4.47;4.18;;;28.20;54.80;;;;;;6211282;28;20235;-84
2023/08/16 15:48:01;;;;;;;4.05;3.85;;;28.20;55.00;;;;;;6203161;28;20260;-82
2023/08/16 15:51:08;;;;;;;3.15;3.08;;;28.20;54.40;;;;;;6224778;28;20246;-83
2023/08/16 15:54:11;;;;;;;3.50;3.20;;;28.20;54.60;;;;;;6225663;28;20258;-79
2023/08/16 15:57:14;;;;;;;3.70;3.50;;;28.10;55.00;;;;;;6189051;28;20314;-84